createdAt,value
2023-01-17T00:02:22.041Z,2.52
2023-01-17T00:05:09.331Z,2.58
2023-01-17T00:07:55.237Z,2.57
2023-01-17T00:10:27.637Z,2.74
2023-01-17T00:12:58.837Z,2.84
2023-01-17T00:15:31.045Z,2.93
2023-01-17T00:18:00.433Z,2.94
2023-01-17T00:20:50.022Z,3.02
2023-01-17T00:23:39.064Z,3.03
2023-01-17T00:26:13.892Z,3.01
2023-01-17T00:28:43.182Z,2.93
2023-01-17T00:31:12.313Z,2.85
2023-01-17T00:33:39.995Z,2.82
2023-01-17T00:36:10.715Z,2.84
2023-01-17T00:38:40.073Z,2.88
2023-01-17T00:41:10.419Z,2.85
2023-01-17T00:43:56.727Z,2.80
2023-01-17T00:46:43.844Z,2.85
2023-01-17T00:49:29.948Z,2.87
2023-01-17T00:52:17.311Z,2.91
2023-01-17T00:55:03.415Z,2.82
2023-01-17T00:57:49.295Z,2.82
2023-01-17T01:00:37.245Z,2.87
2023-01-17T01:03:28.789Z,2.76
2023-01-17T01:06:15.850Z,2.75
2023-01-17T01:09:03.367Z,2.75
2023-01-17T01:11:49.408Z,2.83
2023-01-17T01:14:35.199Z,2.90
2023-01-17T01:17:21.089Z,2.82
2023-01-17T01:20:06.923Z,2.84
2023-01-17T01:22:52.910Z,2.84
2023-01-17T01:25:40.243Z,2.75
2023-01-17T01:28:30.822Z,2.77
2023-01-17T01:31:18.557Z,2.84
2023-01-17T01:33:46.980Z,2.85
2023-01-17T01:36:16.718Z,2.84
2023-01-17T01:38:46.206Z,2.85
2023-01-17T01:41:16.805Z,2.74
2023-01-17T01:43:49.691Z,2.82
2023-01-17T01:46:24.537Z,2.88
2023-01-17T01:49:00.007Z,2.96
2023-01-17T01:51:39.835Z,2.92
2023-01-17T01:54:19.929Z,2.88
2023-01-17T01:56:54.794Z,2.82
2023-01-17T01:59:24.884Z,2.88
2023-01-17T02:01:58.867Z,2.87
2023-01-17T02:04:30.147Z,2.92
2023-01-17T02:07:08.408Z,2.93
2023-01-17T02:09:36.947Z,2.91
2023-01-17T02:12:08.590Z,2.83
2023-01-17T02:14:37.184Z,2.68
2023-01-17T02:17:28.736Z,2.53
2023-01-17T02:20:48.812Z,2.33
2023-01-17T02:24:36.410Z,2.14
2023-01-17T02:27:25.569Z,2.12
2023-01-17T02:30:33.686Z,2.02
2023-01-17T02:33:17.563Z,2.01
2023-01-17T02:35:59.680Z,1.98
2023-01-17T02:38:45.692Z,1.99
2023-01-17T02:41:22.644Z,1.95
2023-01-17T02:43:53.482Z,1.95
2023-01-17T02:46:23.606Z,1.98
2023-01-17T02:48:54.361Z,2.04
2023-01-17T02:51:41.114Z,2.07
2023-01-17T02:54:39.065Z,2.01
2023-01-17T02:57:44.892Z,2.06
2023-01-17T03:00:24.766Z,2.13
2023-01-17T03:03:04.841Z,2.14
2023-01-17T03:05:41.538Z,2.11
2023-01-17T03:08:13.803Z,2.11
2023-01-17T03:10:44.579Z,2.10
2023-01-17T03:13:15.370Z,2.09
2023-01-17T03:15:44.298Z,2.15
2023-01-17T03:18:17.599Z,2.19
2023-01-17T03:20:46.232Z,2.17
2023-01-17T03:23:15.786Z,2.16
2023-01-17T03:25:44.142Z,2.13
2023-01-17T03:28:12.939Z,2.17
2023-01-17T03:30:41.582Z,2.19
2023-01-17T03:33:10.221Z,2.19
2023-01-17T03:35:40.140Z,2.19
2023-01-17T03:38:08.419Z,2.23
2023-01-17T03:40:36.694Z,2.18
2023-01-17T03:43:04.986Z,2.18
2023-01-17T03:45:33.433Z,2.19
2023-01-17T03:48:02.091Z,2.22
2023-01-17T03:50:30.463Z,2.21
2023-01-17T03:53:00.284Z,2.21
2023-01-17T03:55:28.932Z,2.22
2023-01-17T03:57:57.275Z,2.21
2023-01-17T04:00:25.800Z,2.21
2023-01-17T04:02:54.127Z,2.22
2023-01-17T04:05:22.407Z,2.19
2023-01-17T04:07:51.789Z,2.19
2023-01-17T04:10:21.635Z,2.19
2023-01-17T04:12:49.966Z,2.16
2023-01-17T04:15:18.741Z,2.15
2023-01-17T04:17:47.302Z,2.15
2023-01-17T04:20:29.134Z,2.15
2023-01-17T04:22:57.693Z,2.12
2023-01-17T04:25:29.940Z,2.16
2023-01-17T04:27:59.481Z,2.16
2023-01-17T04:30:29.557Z,2.15
2023-01-17T04:32:58.674Z,2.15
2023-01-17T04:35:27.666Z,2.15
2023-01-17T04:37:56.012Z,2.18
2023-01-17T04:40:24.903Z,2.22
2023-01-17T04:42:55.129Z,2.18
2023-01-17T04:45:23.555Z,2.20
2023-01-17T04:47:52.052Z,2.18
2023-01-17T04:50:20.679Z,2.19
2023-01-17T04:52:49.602Z,2.21
2023-01-17T04:55:18.232Z,2.23
2023-01-17T04:57:46.483Z,2.25
2023-01-17T05:00:18.237Z,2.28
2023-01-17T05:02:47.060Z,2.27
2023-01-17T05:05:18.734Z,2.30
2023-01-17T05:07:55.259Z,2.30
2023-01-17T05:10:24.097Z,2.39
2023-01-17T05:12:56.985Z,2.38
2023-01-17T05:15:28.199Z,2.38
2023-01-17T05:17:57.373Z,2.42
2023-01-17T05:20:27.929Z,2.43
2023-01-17T05:22:58.165Z,2.47
2023-01-17T05:25:29.920Z,2.44
2023-01-17T05:28:00.088Z,2.51
2023-01-17T05:30:31.692Z,2.51
2023-01-17T05:33:00.379Z,2.48
2023-01-17T05:35:32.665Z,2.48
2023-01-17T05:38:01.036Z,2.49
2023-01-17T05:40:32.106Z,2.51
2023-01-17T05:43:03.128Z,2.50
2023-01-17T05:45:34.790Z,2.54
2023-01-17T05:48:04.480Z,2.57
2023-01-17T05:50:36.285Z,2.60
2023-01-17T05:53:07.540Z,2.63
2023-01-17T05:55:37.899Z,2.61
2023-01-17T05:58:08.900Z,2.62
2023-01-17T06:00:38.519Z,2.68
2023-01-17T06:03:07.157Z,2.68
2023-01-17T06:05:36.212Z,2.68
2023-01-17T06:08:04.765Z,2.68
2023-01-17T06:10:33.563Z,2.71
2023-01-17T06:13:04.879Z,2.76
2023-01-17T06:15:35.707Z,2.74
2023-01-17T06:18:11.415Z,2.74
2023-01-17T06:20:40.764Z,2.71
2023-01-17T06:23:12.627Z,2.69
2023-01-17T06:25:44.632Z,2.65
2023-01-17T06:28:16.022Z,2.69
2023-01-17T06:30:45.454Z,2.58
2023-01-17T06:33:17.853Z,2.49
2023-01-17T06:35:51.346Z,2.42
2023-01-17T06:38:19.941Z,2.40
2023-01-17T06:40:48.672Z,2.38
2023-01-17T06:43:17.493Z,2.34
2023-01-17T06:45:46.108Z,2.35
2023-01-17T06:48:16.609Z,2.34
2023-01-17T06:50:46.736Z,2.37
2023-01-17T06:53:16.327Z,2.37
2023-01-17T06:55:45.180Z,2.37
2023-01-17T06:58:15.048Z,2.46
2023-01-17T07:00:44.785Z,2.46
2023-01-17T07:03:22.353Z,2.45
2023-01-17T07:05:51.105Z,2.49
2023-01-17T07:08:20.511Z,2.54
2023-01-17T07:10:50.202Z,2.48
2023-01-17T07:13:18.714Z,2.48
2023-01-17T07:15:47.147Z,2.53
2023-01-17T07:18:20.698Z,2.52
2023-01-17T07:20:49.167Z,2.53
2023-01-17T07:23:18.365Z,2.62
2023-01-17T07:25:53.470Z,2.66
2023-01-17T07:28:22.479Z,2.63
2023-01-17T07:30:50.953Z,2.65
2023-01-17T07:33:21.114Z,2.81
2023-01-17T07:35:49.833Z,2.75
2023-01-17T07:38:21.443Z,2.65
2023-01-17T07:40:49.753Z,2.68
2023-01-17T07:43:18.103Z,2.70
2023-01-17T07:45:50.865Z,2.71
2023-01-17T07:48:22.802Z,2.68
2023-01-17T07:50:56.342Z,2.74
2023-01-17T07:53:26.502Z,2.63
2023-01-17T07:55:55.579Z,2.70
2023-01-17T07:58:24.212Z,2.62
2023-01-17T08:00:52.773Z,2.68
2023-01-17T08:03:22.578Z,2.71
2023-01-17T08:05:57.769Z,2.78
2023-01-17T08:08:26.551Z,2.72
2023-01-17T08:10:54.955Z,2.81
2023-01-17T08:13:23.320Z,2.75
2023-01-17T08:15:54.561Z,2.83
2023-01-17T08:18:24.335Z,2.92
2023-01-17T08:20:52.768Z,2.99
2023-01-17T08:23:21.258Z,2.96
2023-01-17T08:25:50.075Z,2.92
2023-01-17T08:28:19.926Z,2.84
2023-01-17T08:30:48.408Z,2.92
2023-01-17T08:33:17.147Z,3.00
2023-01-17T08:35:54.788Z,3.03
2023-01-17T08:38:23.854Z,2.99
2023-01-17T08:40:52.599Z,2.81
2023-01-17T08:43:21.427Z,2.63
2023-01-17T08:45:51.406Z,2.62
2023-01-17T08:48:19.733Z,2.46
2023-01-17T08:50:48.018Z,2.34
2023-01-17T08:53:21.709Z,2.31
2023-01-17T08:55:51.347Z,2.14
2023-01-17T08:58:19.900Z,1.98
2023-01-17T09:00:48.347Z,1.97
2023-01-17T09:03:20.019Z,2.01
2023-01-17T09:05:48.542Z,2.01
2023-01-17T09:08:18.244Z,2.04
2023-01-17T09:10:46.633Z,2.09
2023-01-17T09:13:20.196Z,2.14
2023-01-17T09:15:48.560Z,2.20
2023-01-17T09:18:17.452Z,2.23
2023-01-17T09:20:45.828Z,2.25
2023-01-17T09:23:15.106Z,2.30
2023-01-17T09:25:53.304Z,2.36
2023-01-17T09:28:22.012Z,2.43
2023-01-17T09:30:51.000Z,2.49
2023-01-17T09:33:24.559Z,2.46
2023-01-17T09:35:53.037Z,2.53
2023-01-17T09:38:21.808Z,2.53
2023-01-17T09:40:51.608Z,2.59
2023-01-17T09:43:27.221Z,2.64
2023-01-17T09:45:55.770Z,2.71
2023-01-17T09:48:35.910Z,2.83
2023-01-17T09:51:17.166Z,2.87
2023-01-17T09:53:46.033Z,2.89
2023-01-17T09:56:25.259Z,2.90
2023-01-17T09:59:20.468Z,2.77
2023-01-17T10:02:06.369Z,2.74
2023-01-17T10:04:57.418Z,2.71
2023-01-17T10:07:45.004Z,2.79
2023-01-17T10:10:33.775Z,2.83
2023-01-17T10:13:26.388Z,2.90
2023-01-17T10:16:19.996Z,3.00
2023-01-17T10:19:09.346Z,2.98
2023-01-17T10:22:02.301Z,2.98
2023-01-17T10:25:05.116Z,2.93
2023-01-17T10:27:39.887Z,3.03
2023-01-17T10:30:24.309Z,3.08
2023-01-17T10:32:52.732Z,3.05
2023-01-17T10:35:27.116Z,3.12
2023-01-17T10:37:59.896Z,3.15
2023-01-17T10:40:41.368Z,3.27
2023-01-17T10:43:20.879Z,3.15
2023-01-17T10:45:56.359Z,3.18
2023-01-17T10:48:39.951Z,3.22
2023-01-17T10:51:49.954Z,3.23
2023-01-17T10:54:41.036Z,3.22
2023-01-17T10:57:20.221Z,3.34
2023-01-17T10:59:48.947Z,3.32
2023-01-17T11:02:28.918Z,3.46
2023-01-17T11:05:03.513Z,3.42
2023-01-17T11:07:32.138Z,3.46
2023-01-17T11:10:00.754Z,3.50
2023-01-17T11:12:33.618Z,3.48
2023-01-17T11:15:07.802Z,3.46
2023-01-17T11:17:44.789Z,3.32
2023-01-17T11:20:24.839Z,3.30
2023-01-17T11:23:14.971Z,2.97
2023-01-17T11:25:52.374Z,2.82
2023-01-17T11:28:26.356Z,2.71
2023-01-17T11:30:58.034Z,2.82
2023-01-17T11:33:46.987Z,3.10
2023-01-17T11:36:22.208Z,3.40
2023-01-17T11:38:59.657Z,3.48
2023-01-17T11:41:33.895Z,3.31
2023-01-17T11:44:04.421Z,3.15
2023-01-17T11:46:33.284Z,3.15
2023-01-17T11:49:03.230Z,2.95
2023-01-17T11:51:41.424Z,3.08
2023-01-17T11:54:24.573Z,2.99
2023-01-17T11:56:59.750Z,3.06
2023-01-17T11:59:34.720Z,3.11
2023-01-17T12:02:45.721Z,3.14
2023-01-17T12:05:47.017Z,3.27
2023-01-17T12:08:32.418Z,3.41
2023-01-17T12:11:13.705Z,4.05
2023-01-17T12:14:00.705Z,4.64
2023-01-17T12:17:02.891Z,4.79
2023-01-17T12:19:46.160Z,4.85
2023-01-17T12:22:37.554Z,5.01
2023-01-17T12:25:28.064Z,4.59
2023-01-17T12:28:32.043Z,4.54
2023-01-17T12:31:24.720Z,4.66
2023-01-17T12:33:58.784Z,4.36
2023-01-17T12:36:43.565Z,4.05
2023-01-17T12:39:15.036Z,3.57
2023-01-17T12:41:58.287Z,3.41
2023-01-17T12:44:48.223Z,3.36
2023-01-17T12:47:21.145Z,3.47
2023-01-17T12:50:04.006Z,3.75
2023-01-17T12:52:50.156Z,3.88
2023-01-17T12:55:34.212Z,3.82
2023-01-17T12:58:12.040Z,3.62
2023-01-17T13:00:41.049Z,3.56
2023-01-17T13:03:20.622Z,3.54
2023-01-17T13:05:51.317Z,3.52
2023-01-17T13:08:29.548Z,3.54
2023-01-17T13:11:07.768Z,3.58
2023-01-17T13:13:36.793Z,3.51
2023-01-17T13:16:16.229Z,3.53
2023-01-17T13:18:48.965Z,3.67
2023-01-17T13:21:30.242Z,3.74
2023-01-17T13:24:27.095Z,3.67
2023-01-17T13:27:36.749Z,3.57
2023-01-17T13:30:45.941Z,3.36
2023-01-17T13:33:52.806Z,3.35
2023-01-17T13:36:44.003Z,3.41
2023-01-17T13:39:52.031Z,3.28
2023-01-17T13:42:41.879Z,3.22
2023-01-17T13:45:20.939Z,3.07
2023-01-17T13:47:49.638Z,3.08
2023-01-17T13:50:51.368Z,2.95
2023-01-17T13:53:59.079Z,2.81
2023-01-17T13:56:37.889Z,2.69
2023-01-17T13:59:30.713Z,2.55
2023-01-17T14:01:59.289Z,2.48
2023-01-17T14:05:16.408Z,2.42
2023-01-17T14:07:49.395Z,2.44
2023-01-17T14:10:31.526Z,2.38
2023-01-17T14:13:00.599Z,2.37
2023-01-17T14:15:32.755Z,2.46
2023-01-17T14:18:03.237Z,2.38
2023-01-17T14:21:06.237Z,2.41
2023-01-17T14:24:05.015Z,2.45
2023-01-17T14:26:45.729Z,2.48
2023-01-17T14:29:53.583Z,2.50
2023-01-17T14:32:25.092Z,2.43
2023-01-17T14:34:54.507Z,2.37
2023-01-17T14:37:39.285Z,2.34
2023-01-17T14:40:23.887Z,2.30
2023-01-17T14:43:02.520Z,2.17
2023-01-17T14:45:34.014Z,2.12
2023-01-17T14:48:07.179Z,2.08
2023-01-17T14:50:40.507Z,2.09
2023-01-17T14:53:21.500Z,2.15
2023-01-17T14:55:57.571Z,2.19
2023-01-17T14:58:29.926Z,2.14
2023-01-17T15:01:02.777Z,2.09
2023-01-17T15:03:36.525Z,2.10
2023-01-17T15:06:17.552Z,2.23
2023-01-17T15:08:49.003Z,2.27
2023-01-17T15:11:23.653Z,2.28
2023-01-17T15:13:57.525Z,2.26
2023-01-17T15:16:29.516Z,2.21
2023-01-17T15:18:59.712Z,2.26
2023-01-17T15:21:33.254Z,2.29
2023-01-17T15:24:09.350Z,2.35
2023-01-17T15:26:42.872Z,2.32
2023-01-17T15:29:25.227Z,2.35
2023-01-17T15:31:58.190Z,2.26
2023-01-17T15:34:33.449Z,2.06
2023-01-17T15:37:05.671Z,1.88
2023-01-17T15:39:40.219Z,1.78
2023-01-17T15:42:23.679Z,1.66
2023-01-17T15:44:56.860Z,1.54
2023-01-17T15:47:30.911Z,1.47
2023-01-17T15:50:00.803Z,1.41
2023-01-17T15:52:30.670Z,1.31
2023-01-17T15:55:16.551Z,1.45
2023-01-17T15:57:47.706Z,1.41
2023-01-17T16:00:24.233Z,1.32
2023-01-17T16:02:56.238Z,1.31
2023-01-17T16:05:44.063Z,1.30
2023-01-17T16:08:39.583Z,1.16
2023-01-17T16:11:15.425Z,1.16
2023-01-17T16:13:47.261Z,1.13
2023-01-17T16:16:26.868Z,1.05
2023-01-17T16:19:03.060Z,1.08
2023-01-17T16:21:33.334Z,0.92
2023-01-17T16:24:03.840Z,0.78
2023-01-17T16:26:33.782Z,0.69
2023-01-17T16:29:02.256Z,0.68
2023-01-17T16:31:30.735Z,0.73
2023-01-17T16:33:59.493Z,0.69
2023-01-17T16:36:27.897Z,0.76
2023-01-17T16:38:56.393Z,1.06
2023-01-17T16:41:24.837Z,1.11
2023-01-17T16:44:06.350Z,1.35
2023-01-17T16:46:38.387Z,1.52
2023-01-17T16:49:08.420Z,1.61
2023-01-17T16:51:36.738Z,1.74
2023-01-17T16:54:06.927Z,1.79
2023-01-17T16:56:35.377Z,1.92
2023-01-17T16:59:05.483Z,1.83
2023-01-17T17:01:33.952Z,1.86
2023-01-17T17:04:05.491Z,1.82
2023-01-17T17:06:34.414Z,1.83
2023-01-17T17:09:03.322Z,1.98
2023-01-17T17:11:31.700Z,2.11
2023-01-17T17:14:00.132Z,2.01
2023-01-17T17:16:31.732Z,2.00
2023-01-17T17:19:02.614Z,2.09
2023-01-17T17:21:32.979Z,2.11
2023-01-17T17:24:03.130Z,2.08
2023-01-17T17:26:34.551Z,2.07
2023-01-17T17:29:05.077Z,2.07
2023-01-17T17:31:35.211Z,2.00
2023-01-17T17:34:07.415Z,1.87
2023-01-17T17:36:36.913Z,1.96
2023-01-17T17:39:09.337Z,1.87
2023-01-17T17:41:41.944Z,1.85
2023-01-17T17:44:10.528Z,1.76
2023-01-17T17:46:43.374Z,1.68
2023-01-17T17:49:11.876Z,1.64
2023-01-17T17:51:41.638Z,1.57
2023-01-17T17:54:15.379Z,1.52
2023-01-17T17:56:47.488Z,1.48
2023-01-17T17:59:19.694Z,1.43
2023-01-17T18:01:50.375Z,1.27
2023-01-17T18:04:20.467Z,1.15
2023-01-17T18:06:49.021Z,1.01
2023-01-17T18:09:19.412Z,1.02
2023-01-17T18:11:47.858Z,0.99
2023-01-17T18:14:21.319Z,1.05
2023-01-17T18:16:51.757Z,1.03
2023-01-17T18:19:23.600Z,1.04
2023-01-17T18:21:53.308Z,0.93
2023-01-17T18:24:23.906Z,0.86
2023-01-17T18:26:54.427Z,0.77
2023-01-17T18:29:24.269Z,0.67
2023-01-17T18:31:55.655Z,0.67
2023-01-17T18:34:29.973Z,0.78
2023-01-17T18:36:59.209Z,0.84
2023-01-17T18:39:30.952Z,0.75
2023-01-17T18:42:00.085Z,0.84
2023-01-17T18:44:30.245Z,0.77
2023-01-17T18:47:04.656Z,0.71
2023-01-17T18:49:34.419Z,0.68
2023-01-17T18:52:03.032Z,0.66
2023-01-17T18:54:31.992Z,0.66
2023-01-17T18:57:00.451Z,0.67
2023-01-17T18:59:28.815Z,0.67
2023-01-17T19:01:58.802Z,0.63
2023-01-17T19:04:31.748Z,0.67
2023-01-17T19:07:00.101Z,0.59
2023-01-17T19:09:28.804Z,0.49
2023-01-17T19:11:58.358Z,0.49
2023-01-17T19:14:27.123Z,0.65
2023-01-17T19:16:56.282Z,0.65
2023-01-17T19:19:25.167Z,0.46
2023-01-17T19:21:54.820Z,0.43
2023-01-17T19:24:23.212Z,0.45
2023-01-17T19:26:53.338Z,0.41
2023-01-17T19:29:22.747Z,0.38
2023-01-17T19:31:51.279Z,0.32
2023-01-17T19:34:20.294Z,0.27
2023-01-17T19:36:48.742Z,0.29
2023-01-17T19:39:19.963Z,0.38
2023-01-17T19:41:48.342Z,0.39
2023-01-17T19:44:17.063Z,0.32
2023-01-17T19:46:46.183Z,0.28
2023-01-17T19:49:19.739Z,0.22
2023-01-17T19:51:49.567Z,0.05
2023-01-17T19:54:19.466Z,0.16
2023-01-17T19:56:47.765Z,0.07
2023-01-17T19:59:20.119Z,0.00
2023-01-17T20:01:49.043Z,0.03
2023-01-17T20:04:21.206Z,-0.06
2023-01-17T20:06:49.490Z,-0.03
2023-01-17T20:09:19.250Z,-0.03
2023-01-17T20:11:49.937Z,0.03
2023-01-17T20:14:18.526Z,-0.03
2023-01-17T20:16:49.601Z,0.12
2023-01-17T20:19:18.088Z,-0.05
2023-01-17T20:21:46.507Z,-0.18
2023-01-17T20:24:16.765Z,-0.22
2023-01-17T20:26:46.711Z,-0.25
2023-01-17T20:29:18.045Z,-0.15
2023-01-17T20:31:47.490Z,-0.17
2023-01-17T20:34:19.692Z,-0.28
2023-01-17T20:36:48.441Z,-0.34
2023-01-17T20:39:17.399Z,-0.28
2023-01-17T20:41:49.070Z,-0.32
2023-01-17T20:44:18.718Z,-0.41
2023-01-17T20:46:48.245Z,-0.45
2023-01-17T20:49:20.088Z,-0.44
2023-01-17T20:51:49.007Z,-0.55
2023-01-17T20:54:20.221Z,-0.62
2023-01-17T20:56:50.597Z,-0.63
2023-01-17T20:59:21.760Z,-0.59
2023-01-17T21:01:50.674Z,-0.64
2023-01-17T21:04:25.373Z,-0.66
2023-01-17T21:06:54.767Z,-0.65
2023-01-17T21:09:23.119Z,-0.62
2023-01-17T21:11:54.551Z,-0.52
2023-01-17T21:14:22.859Z,-0.64
2023-01-17T21:16:51.393Z,-0.65
2023-01-17T21:19:20.467Z,-0.66
2023-01-17T21:21:50.153Z,-0.76
2023-01-17T21:24:20.175Z,-0.76
2023-01-17T21:26:51.408Z,-0.71
2023-01-17T21:29:23.410Z,-0.72
2023-01-17T21:31:51.649Z,-0.81
2023-01-17T21:34:20.307Z,-0.80
2023-01-17T21:36:48.642Z,-0.85
2023-01-17T21:39:19.891Z,-0.87
2023-01-17T21:41:50.867Z,-0.86
2023-01-17T21:44:22.984Z,-0.95
2023-01-17T21:46:55.941Z,-0.96
2023-01-17T21:49:25.479Z,-1.05
2023-01-17T21:52:11.326Z,-1.07
2023-01-17T21:54:57.285Z,-1.15
2023-01-17T21:57:42.986Z,-1.09
2023-01-17T22:00:15.657Z,-1.12
2023-01-17T22:02:44.560Z,-1.12
2023-01-17T22:05:14.384Z,-1.10
2023-01-17T22:08:03.459Z,-1.05
2023-01-17T22:10:31.845Z,-0.94
2023-01-17T22:13:00.161Z,-0.97
2023-01-17T22:15:29.877Z,-0.94
2023-01-17T22:17:58.600Z,-0.99
2023-01-17T22:20:27.161Z,-1.04
2023-01-17T22:22:55.676Z,-1.04
2023-01-17T22:25:24.470Z,-1.03
2023-01-17T22:27:52.887Z,-1.09
2023-01-17T22:30:21.440Z,-1.13
2023-01-17T22:32:51.084Z,-1.02
2023-01-17T22:35:19.392Z,-0.95
2023-01-17T22:37:47.646Z,-0.92
2023-01-17T22:40:16.816Z,-1.03
2023-01-17T22:42:45.150Z,-1.14
2023-01-17T22:45:14.354Z,-1.16
2023-01-17T22:47:43.500Z,-1.25
2023-01-17T22:50:14.891Z,-1.00
2023-01-17T22:52:43.195Z,-1.07
2023-01-17T22:55:12.401Z,-1.12
2023-01-17T22:57:40.657Z,-1.32
2023-01-17T23:00:14.631Z,-1.17
2023-01-17T23:02:43.707Z,-1.14
2023-01-17T23:05:13.463Z,-1.13
2023-01-17T23:07:44.832Z,-1.26
2023-01-17T23:10:37.061Z,-1.31
2023-01-17T23:13:05.905Z,-1.46
2023-01-17T23:15:56.156Z,-1.55
2023-01-17T23:18:42.441Z,-1.61
2023-01-17T23:21:12.115Z,-1.70
2023-01-17T23:23:40.334Z,-1.68
2023-01-17T23:26:08.703Z,-1.63
2023-01-17T23:28:35.965Z,-1.65
2023-01-17T23:31:06.460Z,-1.50
2023-01-17T23:33:34.817Z,-1.55
2023-01-17T23:36:03.143Z,-1.63
2023-01-17T23:38:34.274Z,-1.57
2023-01-17T23:41:23.023Z,-1.55
2023-01-17T23:43:55.922Z,-1.60
2023-01-17T23:46:26.636Z,-1.60
2023-01-17T23:48:55.902Z,-1.61
2023-01-17T23:51:24.315Z,-1.62
2023-01-17T23:54:05.190Z,-1.56
2023-01-17T23:56:33.542Z,-1.52
2023-01-17T23:59:02.218Z,-1.49
